createdAt,value
2023-08-03T00:00:55.629Z,93742.75
2023-08-03T00:03:22.842Z,93725.84
2023-08-03T00:05:50.232Z,93710.81
2023-08-03T00:08:17.306Z,93722.66
2023-08-03T00:10:44.382Z,93725.34
2023-08-03T00:13:11.409Z,93703.88
2023-08-03T00:15:38.446Z,93697.72
2023-08-03T00:18:05.585Z,93709.56
2023-08-03T00:20:34.180Z,93709.56
2023-08-03T00:23:01.352Z,93712.25
2023-08-03T00:25:31.559Z,93742.59
2023-08-03T00:27:58.559Z,93742.91
2023-08-03T00:30:25.704Z,93723.00
2023-08-03T00:32:52.776Z,93714.47
2023-08-03T00:35:19.893Z,93714.47
2023-08-03T00:37:46.911Z,93732.81
2023-08-03T00:40:15.332Z,93743.53
2023-08-03T00:42:42.654Z,93738.50
2023-08-03T00:45:12.800Z,93735.00
2023-08-03T00:47:42.918Z,93744.97
2023-08-03T00:50:10.442Z,93746.06
2023-08-03T00:52:38.922Z,93749.84
2023-08-03T00:55:06.568Z,93746.38
2023-08-03T00:57:33.618Z,93759.34
2023-08-03T01:00:01.092Z,93769.25
2023-08-03T01:02:28.262Z,93780.81
2023-08-03T01:04:55.531Z,93792.66
2023-08-03T01:07:24.949Z,93821.41
2023-08-03T01:09:52.805Z,93830.56
2023-08-03T01:12:20.250Z,93820.59
2023-08-03T01:14:48.775Z,93822.03
2023-08-03T01:17:15.865Z,93826.91
2023-08-03T01:19:43.326Z,93828.03
2023-08-03T01:22:14.686Z,93823.75
2023-08-03T01:24:42.226Z,93817.59
2023-08-03T01:27:09.230Z,93804.81
2023-08-03T01:29:36.475Z,93798.34
2023-08-03T01:32:04.194Z,93792.16
2023-08-03T01:34:31.960Z,93785.19
2023-08-03T01:36:59.081Z,93794.84
2023-08-03T01:39:27.483Z,93786.78
2023-08-03T01:41:54.727Z,93798.94
2023-08-03T01:44:29.745Z,93791.66
2023-08-03T01:46:59.458Z,93792.31
2023-08-03T01:49:31.941Z,93795.31
2023-08-03T01:51:58.994Z,93795.31
2023-08-03T01:54:27.147Z,93804.16
2023-08-03T01:56:55.206Z,93825.91
2023-08-03T01:59:22.737Z,93823.56
2023-08-03T02:01:50.020Z,93845.31
2023-08-03T02:04:18.310Z,93843.72
2023-08-03T02:06:57.153Z,93849.41
2023-08-03T02:09:24.685Z,93862.84
2023-08-03T02:11:52.024Z,93857.78
2023-08-03T02:14:19.205Z,93878.16
2023-08-03T02:16:46.854Z,93870.41
2023-08-03T02:19:13.923Z,93876.88
2023-08-03T02:21:41.181Z,93865.34
2023-08-03T02:24:08.583Z,93862.97
2023-08-03T02:26:35.633Z,93861.41
2023-08-03T02:29:02.733Z,93862.50
2023-08-03T02:31:29.862Z,93868.94
2023-08-03T02:33:57.192Z,93868.19
2023-08-03T02:36:32.184Z,93871.97
2023-08-03T02:39:04.735Z,93864.22
2023-08-03T02:41:35.208Z,93854.25
2023-08-03T02:44:04.224Z,93872.28
2023-08-03T02:46:33.235Z,93869.91
2023-08-03T02:49:01.699Z,93883.31
2023-08-03T02:51:31.852Z,93893.25
2023-08-03T02:53:58.959Z,93887.38
2023-08-03T02:56:30.123Z,93884.72
2023-08-03T02:58:57.723Z,93887.38
2023-08-03T03:01:34.657Z,93888.50
2023-08-03T03:04:02.425Z,93889.28
2023-08-03T03:06:30.631Z,93882.34
2023-08-03T03:08:58.050Z,93879.66
2023-08-03T03:11:25.010Z,93882.34
2023-08-03T03:13:52.128Z,93863.88
2023-08-03T03:16:26.761Z,93850.47
2023-08-03T03:18:55.624Z,93849.97
2023-08-03T03:21:23.778Z,93864.97
2023-08-03T03:23:51.831Z,93849.97
2023-08-03T03:26:20.536Z,93853.47
2023-08-03T03:28:47.629Z,93863.38
2023-08-03T03:31:18.545Z,93876.81
2023-08-03T03:33:45.755Z,93869.84
2023-08-03T03:36:15.982Z,93881.38
2023-08-03T03:38:43.338Z,93875.53
2023-08-03T03:41:10.420Z,93887.84
2023-08-03T03:43:41.969Z,93890.53
2023-08-03T03:46:09.108Z,93905.03
2023-08-03T03:48:38.082Z,93893.81
2023-08-03T03:51:05.936Z,93887.69
2023-08-03T03:53:33.636Z,93886.09
2023-08-03T03:56:07.524Z,93881.03
2023-08-03T03:58:34.768Z,93890.19
2023-08-03T04:01:01.980Z,93903.59
2023-08-03T04:03:29.565Z,93906.59
2023-08-03T04:06:01.897Z,93893.19
2023-08-03T04:08:30.396Z,93881.19
2023-08-03T04:10:57.485Z,93897.75
2023-08-03T04:13:24.558Z,93909.59
2023-08-03T04:15:51.680Z,93903.41
2023-08-03T04:18:19.210Z,93916.06
2023-08-03T04:20:46.206Z,93927.56
2023-08-03T04:23:13.401Z,93924.09
2023-08-03T04:25:42.029Z,93919.50
2023-08-03T04:28:16.301Z,93924.38
2023-08-03T04:30:43.766Z,93934.34
2023-08-03T04:33:12.137Z,93933.56
2023-08-03T04:35:41.609Z,93937.34
2023-08-03T04:38:28.987Z,93935.75
2023-08-03T04:41:01.475Z,93928.78
2023-08-03T04:43:30.648Z,93928.78
2023-08-03T04:45:57.811Z,93935.25
2023-08-03T04:48:25.143Z,93932.88
2023-08-03T04:50:53.122Z,93917.56
2023-08-03T04:53:22.139Z,93892.47
2023-08-03T04:55:49.856Z,93891.38
2023-08-03T04:58:16.896Z,93919.78
2023-08-03T05:00:48.180Z,93924.34
2023-08-03T05:03:15.393Z,93909.34
2023-08-03T05:05:44.029Z,93905.56
2023-08-03T05:08:14.873Z,93918.19
2023-08-03T05:10:42.411Z,93924.66
2023-08-03T05:13:09.429Z,93925.75
2023-08-03T05:15:36.484Z,93943.75
2023-08-03T05:18:03.768Z,93932.22
2023-08-03T05:20:30.857Z,93944.03
2023-08-03T05:22:57.914Z,93945.16
2023-08-03T05:25:24.909Z,93948.63
2023-08-03T05:27:52.092Z,93941.66
2023-08-03T05:30:20.457Z,93942.75
2023-08-03T05:32:48.069Z,93933.94
2023-08-03T05:35:15.867Z,93946.25
2023-08-03T05:37:42.939Z,93920.50
2023-08-03T05:40:10.815Z,93923.97
2023-08-03T05:42:39.782Z,93948.13
2023-08-03T05:45:38.428Z,93954.09
2023-08-03T05:48:13.394Z,93943.38
2023-08-03T05:50:44.078Z,93924.59
2023-08-03T05:53:11.972Z,93929.16
2023-08-03T05:55:41.023Z,93949.84
2023-08-03T05:58:12.202Z,93955.97
2023-08-03T06:00:42.879Z,93954.38
2023-08-03T06:03:19.094Z,93960.06
2023-08-03T06:05:49.094Z,93965.44
2023-08-03T06:08:22.998Z,93968.72
2023-08-03T06:10:55.449Z,93973.28
2023-08-03T06:13:32.765Z,93967.94
2023-08-03T06:16:01.290Z,93962.88
2023-08-03T06:18:33.257Z,93969.03
2023-08-03T06:21:00.454Z,93964.78
2023-08-03T06:23:28.457Z,93968.56
2023-08-03T06:25:57.033Z,93944.41
2023-08-03T06:28:25.058Z,93944.69
2023-08-03T06:30:53.209Z,93982.72
2023-08-03T06:33:25.336Z,93981.44
2023-08-03T06:35:57.051Z,93973.69
2023-08-03T06:38:24.468Z,93971.78
2023-08-03T06:40:52.198Z,93958.38
2023-08-03T06:43:19.863Z,93968.34
2023-08-03T06:45:47.187Z,93976.69
2023-08-03T06:48:16.197Z,93988.19
2023-08-03T06:50:43.660Z,93985.00
2023-08-03T06:53:11.919Z,93996.53
2023-08-03T06:55:38.914Z,93993.88
2023-08-03T06:58:05.954Z,94000.31
2023-08-03T07:00:33.210Z,94006.47
2023-08-03T07:03:00.864Z,94004.88
2023-08-03T07:05:28.147Z,94018.28
2023-08-03T07:07:55.254Z,94021.78
2023-08-03T07:10:22.280Z,94022.84
2023-08-03T07:12:49.439Z,94017.81
2023-08-03T07:15:16.950Z,94020.50
2023-08-03T07:17:44.133Z,94024.25
2023-08-03T07:20:12.191Z,94026.94
2023-08-03T07:22:39.401Z,94044.13
2023-08-03T07:25:07.316Z,94037.66
2023-08-03T07:27:34.457Z,94038.44
2023-08-03T07:30:01.414Z,94019.22
2023-08-03T07:32:28.753Z,94011.94
2023-08-03T07:34:55.820Z,94010.03
2023-08-03T07:37:23.089Z,94008.47
2023-08-03T07:39:50.244Z,94018.41
2023-08-03T07:42:17.316Z,94025.16
2023-08-03T07:47:14.165Z,94033.41
2023-08-03T07:49:41.536Z,94039.53
2023-08-03T07:52:09.475Z,94040.34
2023-08-03T07:54:37.844Z,94037.66
2023-08-03T07:57:06.077Z,94049.16
2023-08-03T07:59:33.161Z,94063.38
2023-08-03T08:02:02.178Z,94054.53
2023-08-03T08:04:29.422Z,94062.56
2023-08-03T08:06:56.481Z,94062.56
2023-08-03T08:09:23.818Z,94056.44
2023-08-03T08:11:51.919Z,94054.53
2023-08-03T08:14:19.170Z,94060.97
2023-08-03T08:16:48.681Z,94069.84
2023-08-03T08:19:20.381Z,94048.38
2023-08-03T08:21:49.508Z,94060.69
2023-08-03T08:24:20.384Z,94060.69
2023-08-03T08:26:47.573Z,94067.94
2023-08-03T08:29:14.830Z,94070.63
2023-08-03T08:31:53.849Z,94074.88
2023-08-03T08:34:21.822Z,94068.75
2023-08-03T08:36:52.532Z,94069.53
2023-08-03T08:39:19.607Z,94063.38
2023-08-03T08:41:46.933Z,94060.41
2023-08-03T08:44:17.301Z,94052.66
2023-08-03T08:46:45.753Z,94063.06
2023-08-03T08:54:19.215Z,94073.81
2023-08-03T09:01:51.908Z,94066.06
2023-08-03T09:04:36.450Z,94060.97
2023-08-03T09:07:05.263Z,94069.84
2023-08-03T09:09:37.659Z,94065.56
2023-08-03T09:12:07.925Z,94083.25
2023-08-03T09:14:51.596Z,94088.91
2023-08-03T09:17:26.740Z,94095.06
2023-08-03T09:25:01.855Z,94104.69
2023-08-03T09:32:38.020Z,94109.25
2023-08-03T09:35:24.649Z,94103.41
2023-08-03T09:37:54.496Z,94098.50
2023-08-03T09:40:22.106Z,94097.72
2023-08-03T09:42:50.226Z,94099.63
2023-08-03T09:47:51.993Z,94094.28
2023-08-03T09:50:19.927Z,94087.00
2023-08-03T09:52:50.088Z,94080.06
2023-08-03T09:55:33.625Z,94080.88
2023-08-03T09:58:08.041Z,94084.34
2023-08-03T10:00:36.683Z,94091.59
2023-08-03T10:03:11.640Z,94101.19
2023-08-03T10:05:57.889Z,94096.13
2023-08-03T10:08:48.705Z,94101.00
2023-08-03T10:11:15.973Z,94098.03
2023-08-03T10:13:47.642Z,94091.88
2023-08-03T10:16:17.634Z,94095.38
2023-08-03T10:18:57.390Z,94105.00
2023-08-03T10:21:27.753Z,94096.13
2023-08-03T10:24:15.055Z,94097.22
2023-08-03T10:26:52.587Z,94106.09
2023-08-03T10:29:51.595Z,94094.84
2023-08-03T10:32:24.961Z,94098.81
2023-08-03T10:34:54.234Z,94103.09
2023-08-03T10:37:21.667Z,94096.94
2023-08-03T10:40:03.480Z,94098.50
2023-08-03T10:42:36.346Z,94106.28
2023-08-03T10:45:22.370Z,94099.81
2023-08-03T10:47:50.461Z,94089.56
2023-08-03T10:50:17.927Z,94079.66
2023-08-03T10:52:45.068Z,94082.53
2023-08-03T10:55:25.686Z,94074.50
2023-08-03T10:57:52.800Z,94073.41
2023-08-03T11:00:20.468Z,94078.47
2023-08-03T11:02:48.088Z,94062.09
2023-08-03T11:05:15.201Z,94061.78
2023-08-03T11:07:47.113Z,94066.06
2023-08-03T11:10:18.352Z,94069.53
2023-08-03T11:12:47.401Z,94076.47
2023-08-03T11:15:18.730Z,94082.63
2023-08-03T11:17:51.474Z,94086.09
2023-08-03T11:20:20.343Z,94089.28
2023-08-03T11:22:48.218Z,94084.41
2023-08-03T11:25:18.725Z,94088.66
2023-08-03T11:27:45.856Z,94095.63
2023-08-03T11:30:13.015Z,94101.78
2023-08-03T11:32:41.268Z,94101.47
2023-08-03T11:35:11.546Z,94093.94
2023-08-03T11:37:39.537Z,94092.84
2023-08-03T11:40:09.984Z,94090.63
2023-08-03T11:42:40.473Z,94082.28
2023-08-03T11:45:08.642Z,94085.47
2023-08-03T11:47:49.660Z,94097.00
2023-08-03T11:50:22.056Z,94093.19
2023-08-03T11:52:49.112Z,94097.47
2023-08-03T11:55:40.489Z,94088.66
2023-08-03T11:58:11.045Z,94105.53
2023-08-03T12:00:40.102Z,94101.75
2023-08-03T12:03:07.904Z,94093.69
2023-08-03T12:06:07.409Z,94095.59
2023-08-03T12:08:47.518Z,94102.06
2023-08-03T12:11:24.493Z,94118.94
2023-08-03T12:13:52.224Z,94108.19
2023-08-03T12:16:19.502Z,94096.38
2023-08-03T12:18:49.783Z,94118.34
2023-08-03T12:21:17.092Z,94107.63
2023-08-03T12:23:44.401Z,94109.97
2023-08-03T12:26:11.604Z,94114.25
2023-08-03T12:28:38.958Z,94117.44
2023-08-03T12:31:06.564Z,94112.84
2023-08-03T12:33:36.315Z,94121.41
2023-08-03T12:36:04.053Z,94122.19
2023-08-03T12:38:31.205Z,94125.69
2023-08-03T12:40:58.375Z,94122.69
2023-08-03T12:43:26.037Z,94117.63
2023-08-03T12:45:53.127Z,94128.38
2023-08-03T12:48:20.495Z,94124.56
2023-08-03T12:50:47.874Z,94110.38
2023-08-03T12:53:15.441Z,94123.00
2023-08-03T12:55:42.822Z,94123.78
2023-08-03T12:58:10.426Z,94132.59
2023-08-03T13:00:37.467Z,94119.69
2023-08-03T13:03:05.708Z,94129.03
2023-08-03T13:05:38.493Z,94132.19
2023-08-03T13:08:06.433Z,94138.34
2023-08-03T13:10:34.854Z,94136.94
2023-08-03T13:13:03.158Z,94133.97
2023-08-03T13:15:31.245Z,94138.72
2023-08-03T13:18:00.710Z,94137.31
2023-08-03T13:20:28.338Z,94143.50
2023-08-03T13:22:55.855Z,94143.50
2023-08-03T13:25:23.594Z,94147.78
2023-08-03T13:27:50.965Z,94153.63
2023-08-03T13:30:19.961Z,94158.19
2023-08-03T13:32:47.860Z,94156.31
2023-08-03T13:35:15.270Z,94154.44
2023-08-03T13:37:42.477Z,94154.44
2023-08-03T13:40:10.257Z,94150.66
2023-08-03T13:42:37.330Z,94156.03
2023-08-03T13:45:05.510Z,94144.47
2023-08-03T13:47:32.642Z,94145.28
2023-08-03T13:50:00.122Z,94146.06
2023-08-03T13:52:27.911Z,94154.13
2023-08-03T13:54:54.885Z,94156.03
2023-08-03T14:02:43.935Z,94167.03
2023-08-03T14:05:10.340Z,94165.94
2023-08-03T14:22:41.885Z,94171.00
2023-08-03T14:30:20.345Z,94165.63
2023-08-03T14:32:48.737Z,94169.13
2023-08-03T14:37:46.613Z,94169.91
2023-08-03T14:40:13.721Z,94169.91
2023-08-03T14:42:40.983Z,94161.06
2023-08-03T14:45:09.619Z,94151.94
2023-08-03T14:47:36.691Z,94159.66
2023-08-03T14:52:34.633Z,94165.22
2023-08-03T14:55:01.823Z,94178.09
2023-08-03T14:57:29.023Z,94170.50
2023-08-03T14:59:56.143Z,94170.19
2023-08-03T15:02:23.362Z,94169.41
2023-08-03T15:04:50.837Z,94180.16
2023-08-03T15:07:18.119Z,94185.50
2023-08-03T15:09:49.272Z,94187.09
2023-08-03T15:12:16.552Z,94188.97
2023-08-03T15:17:25.097Z,94192.47
2023-08-03T15:19:59.469Z,94183.94
2023-08-03T15:22:28.244Z,94183.94
2023-08-03T15:24:56.726Z,94188.50
2023-08-03T15:27:26.211Z,94186.91
2023-08-03T15:29:56.745Z,94193.88
2023-08-03T15:34:57.103Z,94180.78
2023-08-03T15:37:28.366Z,94169.22
2023-08-03T15:39:58.112Z,94175.41
2023-08-03T15:42:30.988Z,94165.75
2023-08-03T15:45:04.850Z,94175.69
2023-08-03T15:50:11.868Z,94182.13
2023-08-03T15:52:58.468Z,94182.13
2023-08-03T15:58:01.865Z,94177.06
2023-08-03T16:00:28.939Z,94170.09
2023-08-03T16:02:56.409Z,94155.59
2023-08-03T16:05:26.931Z,94159.84
2023-08-03T16:07:54.825Z,94169.81
2023-08-03T16:10:22.039Z,94188.28
2023-08-03T16:12:49.795Z,94190.97
2023-08-03T16:15:17.212Z,94192.06
2023-08-03T16:17:44.340Z,94197.97
2023-08-03T16:20:12.127Z,94185.59
2023-08-03T16:22:39.209Z,94184.25
2023-08-03T16:25:08.025Z,94197.66
2023-08-03T16:27:35.651Z,94184.25
2023-08-03T16:30:04.005Z,94195.47
2023-08-03T16:32:31.770Z,94195.16
2023-08-03T16:35:04.090Z,94197.84
2023-08-03T16:37:33.625Z,94196.75
2023-08-03T16:40:01.787Z,94181.44
2023-08-03T16:42:31.434Z,94182.72
2023-08-03T16:44:59.930Z,94180.53
2023-08-03T16:47:27.289Z,94179.44
2023-08-03T16:49:54.869Z,94182.28
2023-08-03T16:52:22.333Z,94187.03
2023-08-03T16:54:49.644Z,94182.16
2023-08-03T16:57:18.409Z,94180.75
2023-08-03T16:59:45.835Z,94181.56
2023-08-03T17:02:15.156Z,94179.66
2023-08-03T17:04:42.558Z,94194.69
2023-08-03T17:07:10.051Z,94192.31
2023-08-03T17:09:37.865Z,94196.09
2023-08-03T17:12:05.712Z,94194.50
2023-08-03T17:14:32.788Z,94197.19
2023-08-03T17:17:00.100Z,94203.66
2023-08-03T17:19:27.315Z,94205.06
2023-08-03T17:21:54.586Z,94212.81
2023-08-03T17:24:21.892Z,94213.13
2023-08-03T17:26:49.505Z,94215.00
2023-08-03T17:29:17.331Z,94219.56
2023-08-03T17:31:45.079Z,94217.19
2023-08-03T17:34:12.272Z,94210.25
2023-08-03T17:36:41.307Z,94211.66
2023-08-03T17:39:09.716Z,94211.66
2023-08-03T17:41:36.990Z,94213.84
2023-08-03T17:44:04.321Z,94207.69
2023-08-03T17:46:32.662Z,94206.88
2023-08-03T17:49:00.132Z,94212.56
2023-08-03T17:51:27.636Z,94216.81
2023-08-03T17:53:55.154Z,94219.00
2023-08-03T17:56:22.273Z,94225.19
2023-08-03T17:58:51.022Z,94231.66
2023-08-03T18:01:24.675Z,94237.03
2023-08-03T18:03:52.085Z,94228.16
2023-08-03T18:06:25.336Z,94231.16
2023-08-03T18:08:54.704Z,94229.56
2023-08-03T18:11:22.093Z,94230.66
2023-08-03T18:13:50.147Z,94229.09
2023-08-03T18:16:17.454Z,94241.69
2023-08-03T18:18:48.988Z,94251.66
2023-08-03T18:21:21.352Z,94247.34
2023-08-03T18:23:50.124Z,94259.19
2023-08-03T18:26:18.681Z,94277.19
2023-08-03T18:28:46.893Z,94276.38
2023-08-03T18:31:14.894Z,94272.91
2023-08-03T18:33:42.203Z,94279.38
2023-08-03T18:36:15.405Z,94274.31
2023-08-03T18:38:45.625Z,94269.22
2023-08-03T18:41:15.942Z,94276.50
2023-08-03T18:43:45.998Z,94282.16
2023-08-03T18:46:16.408Z,94289.41
2023-08-03T18:48:46.054Z,94286.72
2023-08-03T18:51:15.789Z,94278.19
2023-08-03T18:53:45.820Z,94273.91
2023-08-03T18:56:18.637Z,94289.53
2023-08-03T18:58:51.701Z,94314.75
2023-08-03T19:01:18.962Z,94317.75
2023-08-03T19:03:48.160Z,94313.47
2023-08-03T19:06:17.430Z,94315.66
2023-08-03T19:08:45.596Z,94328.59
2023-08-03T19:11:13.747Z,94324.00
2023-08-03T19:13:46.776Z,94324.31
2023-08-03T19:16:13.937Z,94327.31
2023-08-03T19:18:43.428Z,94321.44
2023-08-03T19:21:12.669Z,94319.06
2023-08-03T19:23:40.117Z,94333.84
2023-08-03T19:26:08.967Z,94334.97
2023-08-03T19:28:36.401Z,94325.31
2023-08-03T19:31:03.818Z,94336.31
2023-08-03T19:33:32.468Z,94336.63
2023-08-03T19:35:59.586Z,94342.31
2023-08-03T19:38:26.692Z,94335.66
2023-08-03T19:40:55.618Z,94329.47
2023-08-03T19:43:25.892Z,94324.09
2023-08-03T19:45:52.941Z,94333.25
2023-08-03T19:48:20.128Z,94335.13
2023-08-03T19:58:24.465Z,94351.84
2023-08-03T20:00:52.281Z,94351.03
2023-08-03T20:08:22.916Z,94344.38
2023-08-03T20:10:53.287Z,94345.47
2023-08-03T20:13:20.450Z,94345.75
2023-08-03T20:15:54.138Z,94347.66
2023-08-03T20:18:22.393Z,94351.44
2023-08-03T20:20:49.707Z,94357.88
2023-08-03T20:23:16.743Z,94361.66
2023-08-03T20:25:44.225Z,94358.97
2023-08-03T20:28:12.679Z,94358.47
2023-08-03T20:30:40.345Z,94367.59
2023-08-03T20:33:07.485Z,94364.91
2023-08-03T20:35:35.203Z,94352.63
2023-08-03T20:38:07.577Z,94351.81
2023-08-03T20:53:16.794Z,94377.13
2023-08-03T20:55:49.952Z,94377.94
2023-08-03T20:58:25.688Z,94372.06
2023-08-03T21:00:54.561Z,94379.28
2023-08-03T21:03:21.707Z,94402.66
2023-08-03T21:05:50.378Z,94408.00
2023-08-03T21:08:18.134Z,94399.44
2023-08-03T21:13:17.729Z,94401.13
2023-08-03T21:15:44.805Z,94400.31
2023-08-03T21:20:41.942Z,94403.59
2023-08-03T21:23:09.822Z,94397.44
2023-08-03T21:25:36.944Z,94401.19
2023-08-03T21:28:04.066Z,94395.84
2023-08-03T21:30:32.557Z,94396.09
2023-08-03T21:32:59.680Z,94397.22
2023-08-03T21:35:26.836Z,94396.09
2023-08-03T21:37:53.950Z,94385.47
2023-08-03T21:40:21.127Z,94390.25
2023-08-03T21:42:48.166Z,94381.41
2023-08-03T21:45:15.211Z,94387.59
2023-08-03T21:47:42.256Z,94383.59
2023-08-03T21:50:10.064Z,94390.84
2023-08-03T21:52:37.072Z,94391.13
2023-08-03T21:55:04.471Z,94401.88
2023-08-03T21:57:32.429Z,94401.06
2023-08-03T21:59:59.405Z,94401.34
2023-08-03T22:02:26.557Z,94405.94
2023-08-03T22:04:53.655Z,94405.94
2023-08-03T22:07:20.708Z,94406.72
2023-08-03T22:09:47.756Z,94404.31
2023-08-03T22:12:15.184Z,94413.16
2023-08-03T22:14:42.330Z,94403.53
2023-08-03T22:17:09.402Z,94407.31
2023-08-03T22:19:36.462Z,94410.25
2023-08-03T22:22:04.024Z,94411.38
2023-08-03T22:24:31.107Z,94409.78
2023-08-03T22:26:58.256Z,94411.66
2023-08-03T22:29:25.390Z,94413.03
2023-08-03T22:31:52.451Z,94408.75
2023-08-03T22:34:19.437Z,94416.31
2023-08-03T22:36:46.495Z,94421.94
2023-08-03T22:39:13.523Z,94423.03
2023-08-03T22:41:40.763Z,94417.16
2023-08-03T22:44:07.810Z,94414.78
2023-08-03T22:46:35.319Z,94414.28
2023-08-03T22:49:02.381Z,94416.94
2023-08-03T22:51:29.517Z,94419.63
2023-08-03T22:53:56.712Z,94417.25
2023-08-03T22:56:23.944Z,94423.41
2023-08-03T22:58:51.231Z,94429.53
2023-08-03T23:01:21.513Z,94425.28
2023-08-03T23:03:50.067Z,94427.16
2023-08-03T23:06:21.392Z,94421.81
2023-08-03T23:08:49.222Z,94419.13
2023-08-03T23:11:16.364Z,94420.19
2023-08-03T23:13:43.839Z,94419.41
2023-08-03T23:16:21.138Z,94416.75
2023-08-03T23:18:48.541Z,94432.81
2023-08-03T23:21:15.832Z,94451.56
2023-08-03T23:23:43.336Z,94458.84
2023-08-03T23:26:16.268Z,94462.59
2023-08-03T23:28:44.536Z,94467.94
2023-08-03T23:31:13.218Z,94482.94
2023-08-03T23:33:40.802Z,94481.34
2023-08-03T23:36:08.184Z,94489.09
2023-08-03T23:38:35.342Z,94482.66
2023-08-03T23:41:02.583Z,94482.13
2023-08-03T23:43:29.773Z,94482.94
2023-08-03T23:45:56.812Z,94481.06
2023-08-03T23:48:24.000Z,94476.78
2023-08-03T23:50:51.509Z,94476.25
2023-08-03T23:53:18.749Z,94480.84
2023-08-03T23:55:46.023Z,94476.56
2023-08-03T23:58:13.087Z,94466.91
